Airfield :
LOGIN :

Register | Disclaimer

   EN    FR    IT 

 










Legend :    VFR   Marginal VFR   IFR   Intensive IFR   Very Intensive IFR
Visi :
Ceiling :
>= 8 km
>= 3000ft
5 to 8 km
1000 to 3000 ft
1500m to 5 km
500 to 1000 ft
800 to 1500m
200 to 500 ft
< 800m
< 200 ft
Symbols :   Thunderstorms  Fog  Heavy snow  Heavy precipitations  Wind > 20 kt
SIGMETs :     Misc.  Thunderstorms  Icing  Turbulence  Mountain Waves  Volcanic Ashes






- Airport Elevation : 65 ft


EEEI - Ämari Air Base

CURRENT METAR :
  • 270650Z 11003KT 080V150 CAVOK 07/07 Q1030 NOSIG

EXPIRED METARs :
  • 270550Z 07002KT CAVOK 03/03 Q1029 NOSIG
  • 270450Z 10002KT CAVOK 01/00 Q1029 NOSIG

TAF TAF EEEI
Valid from the 27 at 06:00 until the 28 at 06:00 UTC


270500Z 2706/2806 12006KT 9999 SCT020
PROB40
TEMPO 2706/2707 VRB02KT 2000 BCFG SCT003
PROB30
TEMPO 2719/2803 3000 MIFG SCT003



MET'MAP, your aeronautical weather chart ! - Copyright ORBIFLY December 2007 - Disclaimer

ORBIFLY MET'MAP TEAM :

Programming & Development : Alexandra Zaïnal
Concept & original design : Baudouin d'Aumeries
Assistance for programming : Marc-Olivier Méhu
Technical & hardware support : Manuel Goepfert

Contact : metmap@orbifly.com




SOURCES & CREDITS :

   NOAA